C.de Malaga — EAJW — position and weather

sailwx.info

Track history (hours):
 
Tides and Currents Weather Stations Pressure Air Temp Water Temp Dewpoint Dewpoint Depression Visibility Wind Speed Wind Dir Waves Ship Positions

C.de Malaga

Last reported at 2017-Sep-25 08:00 UTC. Time now 2017-Sep-25 08:21 UTC.
Position N 36°03' W 005°24'.

Length 137 m; draft 3.7 m.

Type: Passenger vessel. MMSI: 224549000.

Date/timePositionNaut miles runAvg speedWind from/ knotsBaromVisibWave heightAir tempDewpointWater temp
2017-Sep-25 08:00N 36°03' W 005°24'714.5
2017-Sep-25 07:30N 35°57' W 005°28'4 0.5
2017-Sep-24 23:04N 35°53' W 005°31'0 7.9
2017-Sep-24 23:00N 35°54' W 005°31'611.6
2017-Sep-24 22:30N 35°59' W 005°28'712.3
2017-Sep-24 21:58N 36°04' W 005°24'2 0.9
2017-Sep-24 19:27N 36°07' W 005°24'614.1
2017-Sep-24 19:00N 36°00' W 005°23'10 4.1
2017-Sep-24 16:37N 35°53' W 005°31'212.8
2017-Sep-24 16:26N 35°55' W 005°30'613.9
2017-Sep-24 16:00N 36°00' W 005°26'713.6
2017-Sep-24 15:30N 36°07' W 005°24'2 2.3
2017-Sep-24 14:29N 36°08' W 005°26'1 2.8
2017-Sep-24 13:59N 36°09' W 005°25'714.4
2017-Sep-24 13:30N 36°02' W 005°24'714.0
2017-Sep-24 13:00N 35°56' W 005°29'1 0.4
2017-Sep-24 10:31N 35°56' W 005°30'012.3
2017-Sep-24 10:30N 35°56' W 005°30'713.0
2017-Sep-24 10:00N 36°02' W 005°25'2 0.4
2017-Sep-24 06:23N 36°03' W 005°24'514.0
2017-Sep-24 06:00N 35°58' W 005°28'3 0.4
2017-Sep-23 22:55N 35°56' W 005°30'613.4
2017-Sep-23 22:29N 36°01' W 005°26'7 2.9
2017-Sep-23 20:11N 36°07' W 005°24'213.7
2017-Sep-23 20:01N 36°05' W 005°23'  
2017-Sep-20 22:56N 35°53' W 005°31'613.8
2017-Sep-20 22:30N 35°59' W 005°28'713.1
2017-Sep-20 22:00N 36°04' W 005°24'4 2.6
2017-Sep-20 20:21N 36°08' W 005°26'2 5.5
2017-Sep-20 20:00N 36°08' W 005°24'612.7
2017-Sep-20 19:30N 36°02' W 005°23'1016.4
2017-Sep-20 18:53N 35°54' W 005°31'2 1.1
2017-Sep-20 16:38N 35°56' W 005°30'212.8
2017-Sep-20 16:30N 35°58' W 005°29'612.7
2017-Sep-20 16:00N 36°03' W 005°24'4 1.7
2017-Sep-20 13:48N 36°06' W 005°23'514.9
2017-Sep-20 13:30N 36°02' W 005°24'714.1
2017-Sep-20 13:00N 35°56' W 005°29'3 1.4
2017-Sep-20 10:42N 35°54' W 005°31'3 9.4
2017-Sep-20 10:25N 35°56' W 005°31'613.5
2017-Sep-20 10:00N 36°01' W 005°26'5 1.9
2017-Sep-20 07:32N 36°04' W 005°23'114.5
2017-Sep-20 07:30N 36°04' W 005°23'815.8
2017-Sep-20 07:00N 35°57' W 005°27'5 0.6
2017-Sep-19 22:47N 35°54' W 005°31'3 8.9
2017-Sep-19 22:28N 35°56' W 005°29'612.2
2017-Sep-19 22:00N 36°01' W 005°26'713.4
2017-Sep-19 21:30N 36°07' W 005°24'2 1.2
2017-Sep-19 20:01N 36°08' W 005°26'0 2.7
2017-Sep-19 20:00N 36°08' W 005°26'2 3.9
2017-Sep-19 19:29N 36°07' W 005°24'612.4
2017-Sep-19 19:00N 36°02' W 005°24'1017.1
2017-Sep-19 18:27N 35°54' W 005°31'1 0.4
2017-Sep-19 16:50N 35°53' W 005°31'310.3
2017-Sep-19 16:30N 35°57' W 005°29'611.5
2017-Sep-19 15:58N 36°02' W 005°25'612.9
2017-Sep-19 15:29N 36°08' W 005°24'2 1.2
2017-Sep-19 14:04N 36°08' W 005°26'1 5.5
2017-Sep-19 13:58N 36°09' W 005°26'510.8
2017-Sep-19 13:30N 36°04' W 005°23'714.5
2017-Sep-19 13:00N 35°58' W 005°27'3 1.2
2017-Sep-19 10:37N 35°56' W 005°30'213.7
2017-Sep-19 10:29N 35°58' W 005°29'612.7
2017-Sep-19 10:00N 36°03' W 005°25'3 1.4
2017-Sep-19 07:49N 36°06' W 005°23'514.3
2017-Sep-19 07:29N 36°01' W 005°24'10 1.1
2017-Sep-18 22:50N 35°54' W 005°31'3 9.6
2017-Sep-18 22:31N 35°56' W 005°29'612.2
2017-Sep-18 22:00N 36°01' W 005°24'713.3
2017-Sep-18 21:29N 36°08' W 005°24'0 0.1
2017-Sep-18 19:46N 36°08' W 005°24'311.1
2017-Sep-18 19:30N 36°05' W 005°23'815.3
2017-Sep-18 19:00N 35°58' W 005°26'3 1.5
2017-Sep-18 16:42N 35°56' W 005°30'210.9
2017-Sep-18 16:30N 35°58' W 005°29'610.4
2017-Sep-18 15:58N 36°03' W 005°24'2 0.8
2017-Sep-18 13:27N 36°04' W 005°23'715.2
2017-Sep-18 12:58N 35°57' W 005°27'3 1.3
2017-Sep-18 10:47N 35°56' W 005°30'412.6
2017-Sep-18 10:30N 35°59' W 005°27'6 2.3
2017-Sep-18 07:47N 36°05' W 005°23'514.8
2017-Sep-18 07:27N 35°60' W 005°25'5 0.6
2017-Sep-17 23:15N 35°57' W 005°30'513.3
2017-Sep-17 22:54N 36°01' W 005°26'512.6
2017-Sep-17 22:30N 36°05' W 005°24'4 2.0
2017-Sep-17 20:24N 36°09' W 005°26'511.1
2017-Sep-17 19:59N 36°05' W 005°23'815.5
2017-Sep-17 19:30N 35°58' W 005°26'6 3.3
2017-Sep-17 17:45N 35°53' W 005°31'3 6.4
2017-Sep-17 17:15N 35°56' W 005°30'311.6
2017-Sep-17 16:59N 35°59' W 005°28'510.5
2017-Sep-17 16:30N 36°03' W 005°24'611.0
2017-Sep-17 16:00N 36°09' W 005°26'1 0.3
2017-Sep-17 14:04N 36°08' W 005°26'0 3.0
2017-Sep-17 13:55N 36°08' W 005°26'3 8.1
2017-Sep-17 13:30N 36°06' W 005°23'815.1
2017-Sep-17 13:00N 35°59' W 005°26'3 1.0
2017-Sep-17 10:13N 35°58' W 005°29'612.4
2017-Sep-17 09:43N 36°03' W 005°24'2 0.5
2017-Sep-17 06:06N 36°05' W 005°23'115.2
2017-Sep-17 06:00N 36°03' W 005°23'815.9
2017-Sep-17 05:30N 35°56' W 005°28'4 0.7
2017-Sep-17 00:11N 35°54' W 005°31'313.5
2017-Sep-16 23:59N 35°56' W 005°30'612.9
2017-Sep-16 23:30N 36°01' W 005°25'7 3.7
2017-Sep-16 21:42N 36°08' W 005°26'1 5.2
2017-Sep-16 21:25N 36°08' W 005°24'513.4
2017-Sep-16 21:00N 36°03' W 005°23'715.0
2017-Sep-16 20:31N 35°57' W 005°28'5 1.7
2017-Sep-16 17:54N 35°53' W 005°31'3 7.0
2017-Sep-16 17:27N 35°56' W 005°30'510.9
2017-Sep-16 17:00N 35°60' W 005°26'5 8.5
2017-Sep-16 16:28N 36°04' W 005°23'5 3.5
2017-Sep-16 15:08N 36°08' W 005°26'0 0.3
2017-Sep-16 14:42N 36°08' W 005°26'1 5.9
2017-Sep-16 14:27N 36°08' W 005°24'614.2
2017-Sep-16 14:00N 36°02' W 005°23'1016.8
2017-Sep-16 13:24N 35°54' W 005°31'4 1.3
2017-Sep-16 10:32N 35°57' W 005°29'112.8
2017-Sep-16 10:27N 35°58' W 005°29'611.9
2017-Sep-16 09:59N 36°03' W 005°24'3 1.5
2017-Sep-16 07:59N 36°06' W 005°23'715.1
2017-Sep-16 07:30N 35°59' W 005°25'4 0.5
2017-Sep-15 22:21N 35°56' W 005°30'412.7
2017-Sep-15 22:00N 35°60' W 005°27'712.5
2017-Sep-15 21:28N 36°06' W 005°24'3 1.7
2017-Sep-15 19:55N 36°08' W 005°26'2 5.8
2017-Sep-15 19:31N 36°07' W 005°24'714.8
2017-Sep-15 19:01N 35°59' W 005°25'8 3.7
2017-Sep-15 16:53N 35°53' W 005°31'411.4
2017-Sep-15 16:31N 35°57' W 005°29'610.8
2017-Sep-15 15:59N 36°01' W 005°24'6 3.3
2017-Sep-15 14:01N 36°08' W 005°24'113.7
2017-Sep-15 13:59N 36°07' W 005°24'714.5
2017-Sep-15 13:30N 36°00' W 005°24'9 4.1
2017-Sep-15 11:25N 35°54' W 005°31'3 7.4
2017-Sep-15 11:00N 35°57' W 005°30'610.3
2017-Sep-15 10:26N 36°01' W 005°25'6 2.9
2017-Sep-15 08:10N 36°08' W 005°24'  
Track history (hours):
 
Tides and Currents Weather Stations Pressure Air Temp Water Temp Dewpoint Dewpoint Depression Visibility Wind Speed Wind Dir Waves Ship Positions

C.de Malaga

Last reported at 2017-Sep-25 08:00 UTC. Time now 2017-Sep-25 08:21 UTC.
Position N 36°03' W 005°24'.

Length 137 m; draft 3.7 m.

Type: Passenger vessel. MMSI: 224549000.

Date/timePositionNaut miles runAvg speedWind from/ knotsBaromVisibWave heightAir tempDewpointWater temp
2017-Sep-25 08:00N 36°03' W 005°24'714.5
2017-Sep-25 07:30N 35°57' W 005°28'4 0.5
2017-Sep-24 23:04N 35°53' W 005°31'0 7.9
2017-Sep-24 23:00N 35°54' W 005°31'611.6
2017-Sep-24 22:30N 35°59' W 005°28'712.3
2017-Sep-24 21:58N 36°04' W 005°24'2 0.9
2017-Sep-24 19:27N 36°07' W 005°24'614.1
2017-Sep-24 19:00N 36°00' W 005°23'10 4.1
2017-Sep-24 16:37N 35°53' W 005°31'212.8
2017-Sep-24 16:26N 35°55' W 005°30'613.9
2017-Sep-24 16:00N 36°00' W 005°26'713.6
2017-Sep-24 15:30N 36°07' W 005°24'2 2.3
2017-Sep-24 14:29N 36°08' W 005°26'1 2.8
2017-Sep-24 13:59N 36°09' W 005°25'714.4
2017-Sep-24 13:30N 36°02' W 005°24'714.0
2017-Sep-24 13:00N 35°56' W 005°29'1 0.4
2017-Sep-24 10:31N 35°56' W 005°30'012.3
2017-Sep-24 10:30N 35°56' W 005°30'713.0
2017-Sep-24 10:00N 36°02' W 005°25'2 0.4
2017-Sep-24 06:23N 36°03' W 005°24'514.0
2017-Sep-24 06:00N 35°58' W 005°28'3 0.4
2017-Sep-23 22:55N 35°56' W 005°30'613.4
2017-Sep-23 22:29N 36°01' W 005°26'7 2.9
2017-Sep-23 20:11N 36°07' W 005°24'213.7
2017-Sep-23 20:01N 36°05' W 005°23'  
2017-Sep-20 22:56N 35°53' W 005°31'613.8
2017-Sep-20 22:30N 35°59' W 005°28'713.1
2017-Sep-20 22:00N 36°04' W 005°24'4 2.6
2017-Sep-20 20:21N 36°08' W 005°26'2 5.5
2017-Sep-20 20:00N 36°08' W 005°24'612.7
2017-Sep-20 19:30N 36°02' W 005°23'1016.4
2017-Sep-20 18:53N 35°54' W 005°31'2 1.1
2017-Sep-20 16:38N 35°56' W 005°30'212.8
2017-Sep-20 16:30N 35°58' W 005°29'612.7
2017-Sep-20 16:00N 36°03' W 005°24'4 1.7
2017-Sep-20 13:48N 36°06' W 005°23'514.9
2017-Sep-20 13:30N 36°02' W 005°24'714.1
2017-Sep-20 13:00N 35°56' W 005°29'3 1.4
2017-Sep-20 10:42N 35°54' W 005°31'3 9.4
2017-Sep-20 10:25N 35°56' W 005°31'613.5
2017-Sep-20 10:00N 36°01' W 005°26'5 1.9
2017-Sep-20 07:32N 36°04' W 005°23'114.5
2017-Sep-20 07:30N 36°04' W 005°23'815.8
2017-Sep-20 07:00N 35°57' W 005°27'5 0.6
2017-Sep-19 22:47N 35°54' W 005°31'3 8.9
2017-Sep-19 22:28N 35°56' W 005°29'612.2
2017-Sep-19 22:00N 36°01' W 005°26'713.4
2017-Sep-19 21:30N 36°07' W 005°24'2 1.2
2017-Sep-19 20:01N 36°08' W 005°26'0 2.7
2017-Sep-19 20:00N 36°08' W 005°26'2 3.9
2017-Sep-19 19:29N 36°07' W 005°24'612.4
2017-Sep-19 19:00N 36°02' W 005°24'1017.1
2017-Sep-19 18:27N 35°54' W 005°31'1 0.4
2017-Sep-19 16:50N 35°53' W 005°31'310.3
2017-Sep-19 16:30N 35°57' W 005°29'611.5
2017-Sep-19 15:58N 36°02' W 005°25'612.9
2017-Sep-19 15:29N 36°08' W 005°24'2 1.2
2017-Sep-19 14:04N 36°08' W 005°26'1 5.5
2017-Sep-19 13:58N 36°09' W 005°26'510.8
2017-Sep-19 13:30N 36°04' W 005°23'714.5
2017-Sep-19 13:00N 35°58' W 005°27'3 1.2
2017-Sep-19 10:37N 35°56' W 005°30'213.7
2017-Sep-19 10:29N 35°58' W 005°29'612.7
2017-Sep-19 10:00N 36°03' W 005°25'3 1.4
2017-Sep-19 07:49N 36°06' W 005°23'514.3
2017-Sep-19 07:29N 36°01' W 005°24'10 1.1
2017-Sep-18 22:50N 35°54' W 005°31'3 9.6
2017-Sep-18 22:31N 35°56' W 005°29'612.2
2017-Sep-18 22:00N 36°01' W 005°24'713.3
2017-Sep-18 21:29N 36°08' W 005°24'0 0.1
2017-Sep-18 19:46N 36°08' W 005°24'311.1
2017-Sep-18 19:30N 36°05' W 005°23'815.3
2017-Sep-18 19:00N 35°58' W 005°26'3 1.5
2017-Sep-18 16:42N 35°56' W 005°30'210.9
2017-Sep-18 16:30N 35°58' W 005°29'610.4
2017-Sep-18 15:58N 36°03' W 005°24'2 0.8
2017-Sep-18 13:27N 36°04' W 005°23'715.2
2017-Sep-18 12:58N 35°57' W 005°27'3 1.3
2017-Sep-18 10:47N 35°56' W 005°30'412.6
2017-Sep-18 10:30N 35°59' W 005°27'6 2.3
2017-Sep-18 07:47N 36°05' W 005°23'514.8
2017-Sep-18 07:27N 35°60' W 005°25'5 0.6
2017-Sep-17 23:15N 35°57' W 005°30'513.3
2017-Sep-17 22:54N 36°01' W 005°26'512.6
2017-Sep-17 22:30N 36°05' W 005°24'4 2.0
2017-Sep-17 20:24N 36°09' W 005°26'511.1
2017-Sep-17 19:59N 36°05' W 005°23'815.5
2017-Sep-17 19:30N 35°58' W 005°26'6 3.3
2017-Sep-17 17:45N 35°53' W 005°31'3 6.4
2017-Sep-17 17:15N 35°56' W 005°30'311.6
2017-Sep-17 16:59N 35°59' W 005°28'510.5
2017-Sep-17 16:30N 36°03' W 005°24'611.0
2017-Sep-17 16:00N 36°09' W 005°26'1 0.3
2017-Sep-17 14:04N 36°08' W 005°26'0 3.0
2017-Sep-17 13:55N 36°08' W 005°26'3 8.1
2017-Sep-17 13:30N 36°06' W 005°23'815.1
2017-Sep-17 13:00N 35°59' W 005°26'3 1.0
2017-Sep-17 10:13N 35°58' W 005°29'612.4
2017-Sep-17 09:43N 36°03' W 005°24'2 0.5
2017-Sep-17 06:06N 36°05' W 005°23'115.2
2017-Sep-17 06:00N 36°03' W 005°23'815.9
2017-Sep-17 05:30N 35°56' W 005°28'4 0.7
2017-Sep-17 00:11N 35°54' W 005°31'313.5
2017-Sep-16 23:59N 35°56' W 005°30'612.9
2017-Sep-16 23:30N 36°01' W 005°25'7 3.7
2017-Sep-16 21:42N 36°08' W 005°26'1 5.2
2017-Sep-16 21:25N 36°08' W 005°24'513.4
2017-Sep-16 21:00N 36°03' W 005°23'715.0
2017-Sep-16 20:31N 35°57' W 005°28'5 1.7
2017-Sep-16 17:54N 35°53' W 005°31'3 7.0
2017-Sep-16 17:27N 35°56' W 005°30'510.9
2017-Sep-16 17:00N 35°60' W 005°26'5 8.5
2017-Sep-16 16:28N 36°04' W 005°23'5 3.5
2017-Sep-16 15:08N 36°08' W 005°26'0 0.3
2017-Sep-16 14:42N 36°08' W 005°26'1 5.9
2017-Sep-16 14:27N 36°08' W 005°24'614.2
2017-Sep-16 14:00N 36°02' W 005°23'1016.8
2017-Sep-16 13:24N 35°54' W 005°31'4 1.3
2017-Sep-16 10:32N 35°57' W 005°29'112.8
2017-Sep-16 10:27N 35°58' W 005°29'611.9
2017-Sep-16 09:59N 36°03' W 005°24'3 1.5
2017-Sep-16 07:59N 36°06' W 005°23'715.1
2017-Sep-16 07:30N 35°59' W 005°25'4 0.5
2017-Sep-15 22:21N 35°56' W 005°30'412.7
2017-Sep-15 22:00N 35°60' W 005°27'712.5
2017-Sep-15 21:28N 36°06' W 005°24'3 1.7
2017-Sep-15 19:55N 36°08' W 005°26'2 5.8
2017-Sep-15 19:31N 36°07' W 005°24'714.8
2017-Sep-15 19:01N 35°59' W 005°25'8 3.7
2017-Sep-15 16:53N 35°53' W 005°31'411.4
2017-Sep-15 16:31N 35°57' W 005°29'610.8
2017-Sep-15 15:59N 36°01' W 005°24'6 3.3
2017-Sep-15 14:01N 36°08' W 005°24'113.7
2017-Sep-15 13:59N 36°07' W 005°24'714.5
2017-Sep-15 13:30N 36°00' W 005°24'9 4.1
2017-Sep-15 11:25N 35°54' W 005°31'3 7.4
2017-Sep-15 11:00N 35°57' W 005°30'610.3
2017-Sep-15 10:26N 36°01' W 005°25'6 2.9
2017-Sep-15 08:10N 36°08' W 005°24'  

Dump ship's entire track history